Time;durP1;ratioP1;P1;durP2;ratioP2;P2;SDS_P1;SDS_P2;PMS_P1;PMS_P2;Temp;Humidity;BMP_temperature;BMP_pressure;BME280_temperature;BME280_humidity;BME280_pressure;Samples;Min_cycle;Max_cycle;Signal;HPM_P1;HPM_P2
2022/01/09 00:00:25;;;;;;;10.90;4.08;;;;;;;1.24;50.72;100518.94;1715415;82;22241;-64
2022/01/09 00:02:52;;;;;;;8.80;3.90;;;;;;;1.21;50.73;100513.03;1733742;81;21090;-63
2022/01/09 00:05:18;;;;;;;8.88;3.77;;;;;;;1.16;50.63;100504.16;1743692;80;21759;-64
2022/01/09 00:07:44;;;;;;;11.68;3.85;;;;;;;1.10;50.84;100497.45;1732918;81;21107;-64
2022/01/09 00:10:11;;;;;;;10.30;4.15;;;;;;;1.11;50.72;100496.55;1720355;80;21471;-64
2022/01/09 00:12:39;;;;;;;7.72;3.47;;;;;;;1.08;51.04;100491.48;1716967;81;22029;-68
2022/01/09 00:15:07;;;;;;;10.00;3.60;;;;;;;1.15;51.07;100497.28;1745862;80;21089;-65
2022/01/09 00:17:33;;;;;;;9.03;3.52;;;;;;;1.18;51.10;100488.09;1732213;81;22323;-64
2022/01/09 00:20:00;;;;;;;7.72;3.50;;;;;;;1.23;50.79;100499.13;1716686;81;21069;-64
2022/01/09 00:22:38;;;;;;;8.93;4.12;;;;;;;1.22;50.85;100500.02;1731040;81;21065;-64
2022/01/09 00:24:57;;;;;;;8.48;3.35;;;;;;;1.24;50.82;100494.77;1720709;80;21130;-64
2022/01/09 00:27:23;;;;;;;11.95;3.65;;;;;;;1.23;50.88;100480.97;1697496;81;21150;-65
2022/01/09 00:29:50;;;;;;;9.10;3.70;;;;;;;1.28;50.89;100484.69;1720183;80;21582;-64
2022/01/09 00:32:18;;;;;;;8.63;3.40;;;;;;;1.28;50.87;100479.50;1721307;80;21573;-64
2022/01/09 00:34:45;;;;;;;9.68;3.80;;;;;;;1.34;51.04;100474.52;1744870;80;21673;-64
2022/01/09 00:37:12;;;;;;;8.18;3.80;;;;;;;1.31;50.66;100465.09;1721422;80;21194;-66
2022/01/09 00:39:39;;;;;;;8.33;3.80;;;;;;;1.29;50.58;100472.09;1721676;80;21100;-64
2022/01/09 00:42:08;;;;;;;6.25;3.02;;;;;;;1.23;50.75;100461.53;1734847;81;21168;-64
2022/01/09 00:44:34;;;;;;;9.85;4.10;;;;;;;1.23;50.95;100466.72;1746667;80;21586;-64
2022/01/09 00:47:03;;;;;;;7.75;3.55;;;;;;;1.22;50.97;100460.30;1718424;81;21049;-65
2022/01/09 00:49:30;;;;;;;8.20;3.35;;;;;;;1.24;50.91;100459.77;1744919;80;21984;-63
2022/01/09 00:51:56;;;;;;;8.90;3.35;;;;;;;1.24;50.98;100457.18;1722529;80;21102;-64
2022/01/09 00:54:27;;;;;;;8.20;3.37;;;;;;;1.24;51.04;100450.23;1733691;81;21675;-65
2022/01/09 00:57:00;;;;;;;9.90;4.00;;;;;;;1.21;51.18;100452.98;1742583;80;21356;-63
2022/01/09 00:59:28;;;;;;;9.20;3.22;;;;;;;1.23;51.11;100451.16;1720067;81;21142;-66
2022/01/09 01:01:55;;;;;;;8.25;3.00;;;;;;;1.24;51.27;100446.81;1723135;81;21058;-65
2022/01/09 01:04:21;;;;;;;15.58;3.92;;;;;;;1.26;51.20;100441.11;1719788;81;21093;-66
2022/01/09 01:06:49;;;;;;;8.18;3.62;;;;;;;1.20;51.20;100435.73;1735261;81;21566;-63
2022/01/09 01:09:16;;;;;;;8.73;3.60;;;;;;;1.20;51.17;100438.32;1735030;81;21131;-65
2022/01/09 01:11:44;;;;;;;11.35;3.75;;;;;;;1.21;51.25;100433.54;1749277;80;21134;-64
2022/01/09 01:14:12;;;;;;;10.40;3.65;;;;;;;1.24;51.16;100435.98;1746123;80;21095;-64
2022/01/09 01:16:41;;;;;;;8.43;3.37;;;;;;;1.23;51.40;100434.78;1746700;80;21617;-64
2022/01/09 01:19:10;;;;;;;8.53;3.67;;;;;;;1.24;51.46;100426.08;1736040;81;21079;-64
2022/01/09 01:21:36;;;;;;;9.43;4.30;;;;;;;1.22;51.68;100422.71;1706207;81;21069;-65
2022/01/09 01:24:02;;;;;;;9.23;3.52;;;;;;;1.23;52.03;100422.65;1708815;81;21085;-64
2022/01/09 01:26:29;;;;;;;10.72;4.47;;;;;;;1.20;52.30;100421.94;1734851;81;21188;-65
2022/01/09 01:28:55;;;;;;;10.72;4.50;;;;;;;1.19;52.68;100408.11;1734353;81;21663;-63
2022/01/09 01:31:22;;;;;;;10.68;4.87;;;;;;;1.10;53.88;100401.56;1722369;81;22467;-64
2022/01/09 01:33:48;;;;;;;12.40;5.15;;;;;;;1.07;54.23;100401.67;1743251;80;21021;-63
2022/01/09 01:36:15;;;;;;;11.63;5.03;;;;;;;1.04;54.16;100395.34;1745842;80;21708;-64
2022/01/09 01:38:41;;;;;;;12.18;5.28;;;;;;;1.03;54.22;100387.17;1748073;80;21111;-65
2022/01/09 01:41:07;;;;;;;11.00;4.75;;;;;;;1.01;54.33;100377.76;1730159;80;21636;-64
2022/01/09 01:43:34;;;;;;;13.98;5.20;;;;;;;1.00;54.56;100378.69;1753729;80;21333;-63
2022/01/09 01:46:02;;;;;;;8.93;4.65;;;;;;;0.91;54.84;100364.36;1729092;80;21019;-64
2022/01/09 01:48:29;;;;;;;9.88;4.40;;;;;;;0.87;55.17;100371.38;1732333;81;21062;-64
2022/01/09 01:50:55;;;;;;;13.68;4.87;;;;;;;0.81;55.73;100366.47;1730698;80;21849;-64
2022/01/09 01:53:22;;;;;;;10.65;4.33;;;;;;;0.81;56.05;100365.17;1754417;80;21056;-64
2022/01/09 01:55:53;;;;;;;15.58;4.97;;;;;;;0.77;56.33;100361.46;1723399;80;21577;-66
2022/01/09 01:58:17;;;;;;;9.90;4.00;;;;;;;0.73;56.67;100364.62;1761188;80;21584;-64
2022/01/09 02:00:43;;;;;;;9.08;4.37;;;;;;;0.60;57.55;100358.24;1758071;80;21036;-64
2022/01/09 02:03:10;;;;;;;10.53;4.47;;;;;;;0.53;57.76;100354.59;1756878;80;21753;-65
2022/01/09 02:05:37;;;;;;;10.05;4.60;;;;;;;0.47;58.26;100348.38;1753854;80;21577;-64
2022/01/09 02:08:04;;;;;;;10.55;4.35;;;;;;;0.46;58.59;100347.14;1727846;80;21105;-64
2022/01/09 02:10:30;;;;;;;10.08;4.60;;;;;;;0.44;58.89;100339.42;1751281;80;21024;-63
2022/01/09 02:12:57;;;;;;;10.00;5.67;;;;;;;0.47;59.16;100338.02;1753563;80;21028;-63
2022/01/09 02:15:35;;;;;;;10.03;4.72;;;;;;;0.46;59.38;100327.26;1753233;80;21609;-64
2022/01/09 02:18:04;;;;;;;9.80;4.25;;;;;;;0.46;59.46;100324.67;1753301;80;22165;-64
2022/01/09 02:20:32;;;;;;;10.30;4.33;;;;;;;0.43;59.83;100320.91;1752532;80;21112;-65
2022/01/09 02:22:58;;;;;;;9.03;4.85;;;;;;;0.36;60.08;100318.17;1752138;80;21100;-63
2022/01/09 02:25:26;;;;;;;11.60;4.37;;;;;;;0.29;60.46;100308.96;1727349;81;21074;-64
2022/01/09 02:27:53;;;;;;;9.03;4.50;;;;;;;0.28;60.90;100312.44;1733299;81;21147;-65
2022/01/09 02:30:19;;;;;;;12.13;4.75;;;;;;;0.31;61.34;100308.45;1749239;80;21043;-64
2022/01/09 02:32:45;;;;;;;9.75;4.92;;;;;;;0.28;61.83;100302.09;1753423;80;21470;-64
2022/01/09 02:35:12;;;;;;;9.35;4.30;;;;;;;0.25;62.02;100297.86;1737784;81;21097;-65
2022/01/09 02:37:38;;;;;;;9.88;4.92;;;;;;;0.19;61.81;100294.23;1699717;81;21102;-64
2022/01/09 02:40:06;;;;;;;12.07;4.37;;;;;;;0.14;61.95;100288.39;1682876;82;21784;-64
2022/01/09 02:42:32;;;;;;;10.40;4.22;;;;;;;0.14;62.06;100290.98;1680773;83;21092;-64
2022/01/09 02:44:59;;;;;;;12.05;4.80;;;;;;;0.15;62.00;100290.06;1704505;82;21504;-64
2022/01/09 02:47:29;;;;;;;11.55;5.05;;;;;;;0.17;62.05;100280.52;1706071;82;21084;-64
2022/01/09 02:49:56;;;;;;;11.05;5.25;;;;;;;0.20;62.03;100287.30;1704164;82;21067;-63
2022/01/09 02:52:47;;;;;;;10.43;4.83;;;;;;;0.13;62.09;100277.18;1701008;82;21099;-64
2022/01/09 02:55:10;;;;;;;8.58;4.20;;;;;;;0.08;62.46;100275.22;1700888;82;21135;-64
2022/01/09 02:57:32;;;;;;;10.32;4.47;;;;;;;0.08;62.50;100271.34;1702029;82;21519;-63
2022/01/09 02:59:59;;;;;;;13.40;6.30;;;;;;;0.06;62.84;100272.31;1690160;81;21096;-64
2022/01/09 03:02:25;;;;;;;9.53;4.85;;;;;;;0.10;62.89;100268.27;1723622;81;21556;-64
2022/01/09 03:04:52;;;;;;;9.08;4.55;;;;;;;0.13;63.03;100260.82;1716823;81;21231;-64
2022/01/09 03:07:18;;;;;;;10.63;4.35;;;;;;;0.15;62.92;100258.58;1722780;81;21049;-64
2022/01/09 03:09:45;;;;;;;14.23;5.80;;;;;;;0.17;62.93;100252.89;1717914;81;21129;-64
2022/01/09 03:12:12;;;;;;;9.03;4.30;;;;;;;0.20;62.91;100247.20;1716822;81;21742;-65
2022/01/09 03:14:39;;;;;;;9.95;4.33;;;;;;;0.21;62.80;100239.84;1719194;81;21088;-64
2022/01/09 03:17:05;;;;;;;10.25;5.10;;;;;;;0.20;63.02;100235.55;1717748;81;21772;-64
2022/01/09 03:19:31;;;;;;;10.70;4.78;;;;;;;0.17;62.82;100237.83;1715424;81;21100;-64
2022/01/09 03:21:58;;;;;;;13.35;6.28;;;;;;;0.11;62.62;100236.30;1716495;81;21079;-64
2022/01/09 03:24:24;;;;;;;12.65;5.22;;;;;;;0.06;62.91;100233.52;1717023;81;21113;-63
2022/01/09 03:26:51;;;;;;;10.55;5.67;;;;;;;0.04;63.22;100234.03;1716253;81;21125;-64
2022/01/09 03:29:17;;;;;;;12.15;5.40;;;;;;;0.08;63.33;100231.23;1689077;83;21892;-64
2022/01/09 03:31:44;;;;;;;11.20;4.95;;;;;;;0.08;63.34;100227.81;1717726;81;21074;-64
2022/01/09 03:34:10;;;;;;;13.10;6.00;;;;;;;0.12;63.33;100230.70;1689968;83;21112;-64
2022/01/09 03:36:36;;;;;;;9.20;5.35;;;;;;;0.17;63.46;100231.36;1692993;81;21081;-64
2022/01/09 03:39:03;;;;;;;12.45;4.33;;;;;;;0.21;63.30;100225.14;1719329;81;21133;-64
2022/01/09 03:41:29;;;;;;;10.78;4.72;;;;;;;0.30;63.22;100227.37;1746126;80;21098;-64
2022/01/09 03:43:56;;;;;;;13.10;4.90;;;;;;;0.30;63.22;100227.37;1733405;81;21119;-64
2022/01/09 03:46:22;;;;;;;10.23;4.95;;;;;;;0.32;63.09;100217.80;1705559;81;21211;-64
2022/01/09 03:48:50;;;;;;;12.13;5.03;;;;;;;0.32;63.14;100215.64;1734677;81;21090;-65
2022/01/09 03:51:17;;;;;;;9.53;5.22;;;;;;;0.30;63.06;100217.45;1708929;82;21121;-64
2022/01/09 03:53:43;;;;;;;11.57;5.25;;;;;;;0.29;63.17;100216.63;1734995;81;21109;-64
2022/01/09 03:56:10;;;;;;;11.18;5.35;;;;;;;0.31;62.83;100211.39;1733690;81;21152;-64
2022/01/09 03:58:36;;;;;;;10.60;4.80;;;;;;;0.27;62.66;100211.10;1731170;81;21719;-64
2022/01/09 04:01:06;;;;;;;9.15;4.55;;;;;;;0.31;63.29;100211.39;1730468;81;21593;-64
2022/01/09 04:03:34;;;;;;;10.68;4.42;;;;;;;0.33;63.22;100203.10;1745475;80;21118;-66
2022/01/09 04:06:01;;;;;;;9.33;4.40;;;;;;;0.37;63.08;100198.20;1715403;81;21142;-65
2022/01/09 04:08:28;;;;;;;13.65;5.12;;;;;;;0.38;63.02;100194.70;1719497;81;21024;-66
2022/01/09 04:10:54;;;;;;;9.90;4.50;;;;;;;0.39;63.01;100196.83;1747647;80;21068;-64
2022/01/09 04:13:20;;;;;;;9.48;5.15;;;;;;;0.42;63.15;100192.82;1723336;81;21138;-64
2022/01/09 04:15:49;;;;;;;9.50;4.92;;;;;;;0.43;63.08;100194.05;1724567;81;21199;-64
2022/01/09 04:18:16;;;;;;;9.33;4.25;;;;;;;0.45;63.09;100188.81;1706207;82;21202;-63
2022/01/09 04:20:43;;;;;;;12.65;5.35;;;;;;;0.46;63.14;100195.23;1722377;81;21087;-65
2022/01/09 04:23:10;;;;;;;13.08;4.92;;;;;;;0.48;63.07;100187.41;1743280;80;21144;-65
2022/01/09 04:25:36;;;;;;;10.20;4.08;;;;;;;0.47;62.98;100186.56;1744286;80;21119;-64
2022/01/09 04:28:04;;;;;;;8.13;4.65;;;;;;;0.45;62.94;100179.75;1746456;80;21502;-64
2022/01/09 04:30:30;;;;;;;9.20;4.97;;;;;;;0.43;63.35;100181.11;1748016;80;21091;-64
2022/01/09 04:32:57;;;;;;;13.00;5.05;;;;;;;0.38;63.12;100175.28;1721663;80;21060;-63
2022/01/09 04:37:48;;;;;;;11.80;5.40;;;;;;;0.41;63.28;100167.40;1846042;75;22755;-63
2022/01/09 04:40:17;;;;;;;9.13;4.40;;;;;;;0.35;63.28;100158.15;1806887;77;21036;-63
2022/01/09 04:42:50;;;;;;;11.95;4.45;;;;;;;0.38;63.28;100155.87;1813877;77;21100;-66
2022/01/09 04:45:16;;;;;;;12.50;5.40;;;;;;;0.41;63.40;100157.50;1811076;77;21029;-65
2022/01/09 04:47:44;;;;;;;9.88;4.37;;;;;;;0.45;63.19;100153.41;1808637;77;21041;-66
2022/01/09 04:50:18;;;;;;;10.72;5.35;;;;;;;0.44;63.08;100151.74;1793627;77;21105;-65
2022/01/09 04:52:40;;;;;;;8.83;4.75;;;;;;;0.45;63.19;100146.94;1808122;77;20985;-66
2022/01/09 04:55:08;;;;;;;10.43;4.35;;;;;;;0.46;63.29;100145.20;1814036;77;21109;-65
2022/01/09 04:57:35;;;;;;;8.93;4.17;;;;;;;0.50;63.15;100142.41;1806917;77;21097;-67
2022/01/09 05:00:02;;;;;;;9.15;4.40;;;;;;;0.52;63.14;100143.64;1811487;77;21030;-67
2022/01/09 05:02:29;;;;;;;13.58;4.75;;;;;;;0.53;63.07;100138.86;1812818;77;21039;-67
2022/01/09 05:04:55;;;;;;;10.70;4.30;;;;;;;0.53;63.01;100136.27;1813627;77;21033;-66
2022/01/09 05:07:23;;;;;;;8.43;4.37;;;;;;;0.55;62.99;100126.25;1810179;77;21513;-67
2022/01/09 05:09:49;;;;;;;8.53;4.22;;;;;;;0.55;62.88;100130.13;1804835;77;21065;-65
2022/01/09 05:12:16;;;;;;;11.95;4.55;;;;;;;0.56;62.99;100121.91;1790547;77;21569;-66
2022/01/09 05:14:42;;;;;;;10.72;4.78;;;;;;;0.56;62.99;100120.61;1807150;77;21121;-67
2022/01/09 05:17:08;;;;;;;15.25;5.35;;;;;;;0.54;62.99;100122.43;1810914;77;21109;-66
2022/01/09 05:19:36;;;;;;;11.63;3.98;;;;;;;0.57;63.00;100118.84;1808371;77;21052;-66
2022/01/09 05:22:03;;;;;;;10.50;4.83;;;;;;;0.58;62.91;100119.25;1811527;77;20999;-65
2022/01/09 05:24:31;;;;;;;12.47;4.92;;;;;;;0.62;62.77;100122.91;1813017;77;21037;-66
2022/01/09 05:26:57;;;;;;;10.58;5.33;;;;;;;0.60;62.81;100114.84;1816991;77;21048;-66
2022/01/09 05:29:24;;;;;;;8.88;4.97;;;;;;;0.60;62.76;100120.84;1810866;77;21116;-65
2022/01/09 05:31:51;;;;;;;10.82;5.25;;;;;;;0.59;62.84;100117.03;1810871;77;21056;-67
2022/01/09 05:34:17;;;;;;;9.68;5.58;;;;;;;0.60;62.66;100113.08;1809767;77;21045;-68
2022/01/09 05:36:44;;;;;;;10.43;5.45;;;;;;;0.56;62.86;100115.43;1794272;77;21056;-64
2022/01/09 05:39:10;;;;;;;13.60;4.75;;;;;;;0.58;62.79;100119.25;1751338;80;21559;-66
2022/01/09 05:41:37;;;;;;;9.53;5.33;;;;;;;0.55;62.98;100114.60;1775092;79;21057;-67
2022/01/09 05:44:04;;;;;;;8.80;4.50;;;;;;;0.54;62.97;100105.60;1776716;78;21349;-65
2022/01/09 05:46:31;;;;;;;14.47;6.30;;;;;;;0.52;63.09;100110.84;1776479;78;21037;-66
2022/01/09 05:48:57;;;;;;;11.85;5.05;;;;;;;0.51;63.18;100105.73;1774986;78;22691;-67
2022/01/09 05:51:23;;;;;;;10.65;5.20;;;;;;;0.53;63.31;100101.31;1750744;78;21065;-67
2022/01/09 05:53:50;;;;;;;12.45;5.20;;;;;;;0.55;63.11;100098.20;1775722;78;21037;-66
2022/01/09 05:56:16;;;;;;;11.93;5.37;;;;;;;0.48;63.16;100097.63;1774177;79;21187;-66
2022/01/09 05:58:44;;;;;;;14.98;5.97;;;;;;;0.44;63.25;100096.52;1773856;78;21299;-65
2022/01/09 06:01:11;;;;;;;9.45;5.28;;;;;;;0.37;63.19;100094.67;1777769;78;21607;-66
2022/01/09 06:03:37;;;;;;;10.63;5.80;;;;;;;0.29;63.42;100091.10;1773043;80;21037;-66
2022/01/09 06:06:03;;;;;;;11.70;6.03;;;;;;;0.28;63.54;100088.11;1774060;79;22191;-65
2022/01/09 06:08:30;;;;;;;11.48;5.87;;;;;;;0.29;63.70;100090.27;1769237;80;21078;-66
2022/01/09 06:10:57;;;;;;;10.90;5.50;;;;;;;0.29;63.67;100079.45;1778462;78;22637;-66
2022/01/09 06:13:23;;;;;;;12.93;6.10;;;;;;;0.29;63.99;100069.11;1746669;78;21033;-65
2022/01/09 06:15:49;;;;;;;11.83;5.28;;;;;;;0.29;63.99;100069.11;1778267;78;21556;-66
2022/01/09 06:18:20;;;;;;;9.93;5.22;;;;;;;0.28;63.83;100067.41;1752833;78;21065;-66
2022/01/09 06:20:48;;;;;;;12.60;6.22;;;;;;;0.28;64.00;100059.64;1748531;78;21727;-65
2022/01/09 06:23:20;;;;;;;10.05;5.60;;;;;;;0.28;64.00;100059.64;1748244;78;21013;-62
2022/01/09 06:25:53;;;;;;;11.78;5.95;;;;;;;0.30;63.85;100062.17;1775534;78;21378;-65
2022/01/09 06:28:19;;;;;;;11.73;6.00;;;;;;;0.31;63.93;100059.52;1776418;78;22402;-65
2022/01/09 06:30:46;;;;;;;12.65;7.10;;;;;;;0.35;64.06;100057.20;1773172;78;21068;-67
2022/01/09 06:33:12;;;;;;;12.75;5.90;;;;;;;0.36;64.04;100058.87;1748096;78;21543;-57
2022/01/09 06:35:40;;;;;;;13.60;6.97;;;;;;;0.38;64.14;100053.63;1778439;78;21124;-63
2022/01/09 06:38:07;;;;;;;13.03;6.78;;;;;;;0.41;63.74;100050.91;1784475;77;21077;-61
2022/01/09 06:40:35;;;;;;;11.80;6.28;;;;;;;0.41;63.74;100050.91;1806452;77;21030;-61
2022/01/09 06:43:01;;;;;;;14.58;7.15;;;;;;;0.43;64.28;100058.15;1809432;77;21092;-61
2022/01/09 06:45:27;;;;;;;13.32;6.78;;;;;;;0.42;64.08;100051.31;1807802;77;21501;-62
2022/01/09 06:47:55;;;;;;;14.03;7.35;;;;;;;0.42;64.07;100051.31;1808127;77;21003;-62
2022/01/09 06:50:21;;;;;;;14.58;8.05;;;;;;;0.42;64.38;100041.39;1790254;77;21139;-61
2022/01/09 06:52:50;;;;;;;13.08;6.92;;;;;;;0.38;64.23;100039.39;1811423;77;21081;-62
2022/01/09 06:55:17;;;;;;;14.18;8.20;;;;;;;0.40;64.49;100041.91;1803540;77;21085;-63
2022/01/09 06:57:44;;;;;;;14.15;7.75;;;;;;;0.42;64.50;100044.84;1808255;77;21119;-63
2022/01/09 07:00:12;;;;;;;13.90;7.75;;;;;;;0.50;64.38;100050.95;1813010;77;21030;-62
2022/01/09 07:02:39;;;;;;;14.18;7.37;;;;;;;0.51;64.38;100050.06;1809097;77;21053;-64
2022/01/09 07:05:06;;;;;;;14.35;7.65;;;;;;;0.58;64.27;100045.00;1787430;77;21098;-65
2022/01/09 07:07:33;;;;;;;14.33;7.50;;;;;;;0.59;64.21;100034.17;1794748;77;21101;-63
2022/01/09 07:10:00;;;;;;;11.65;6.62;;;;;;;0.62;64.19;100035.34;1813293;77;21515;-63
2022/01/09 07:12:26;;;;;;;14.15;7.03;;;;;;;0.63;64.16;100042.21;1820540;77;21529;-63
2022/01/09 07:14:53;;;;;;;14.78;7.53;;;;;;;0.67;64.10;100039.42;1806456;77;21042;-64
2022/01/09 07:17:20;;;;;;;15.98;8.05;;;;;;;0.70;63.99;100037.97;1805485;77;21945;-63
2022/01/09 07:19:46;;;;;;;13.75;7.58;;;;;;;0.75;63.92;100033.88;1808340;77;21061;-64
2022/01/09 07:22:13;;;;;;;15.43;8.15;;;;;;;0.79;63.93;100029.41;1806421;77;21519;-63
2022/01/09 07:24:39;;;;;;;13.95;7.20;;;;;;;0.84;63.54;100024.42;1808555;77;21029;-63
2022/01/09 07:27:06;;;;;;;12.95;7.50;;;;;;;0.85;63.56;100021.36;1788368;77;21011;-64
2022/01/09 07:29:34;;;;;;;14.63;7.97;;;;;;;0.85;63.38;100014.42;1807127;77;21057;-62
2022/01/09 07:32:01;;;;;;;13.62;7.50;;;;;;;0.83;63.41;100005.89;1810149;76;21612;-62
2022/01/09 07:34:28;;;;;;;15.32;7.45;;;;;;;0.84;63.39;99998.52;1797654;77;21136;-64
2022/01/09 07:36:54;;;;;;;10.95;6.17;;;;;;;0.80;63.34;100002.60;1802314;77;21563;-64
2022/01/09 07:39:20;;;;;;;10.78;5.97;;;;;;;0.80;63.44;99988.36;1774316;78;21053;-63
2022/01/09 07:41:47;;;;;;;13.13;6.47;;;;;;;0.80;63.61;99998.72;1771702;78;21482;-66
2022/01/09 07:44:13;;;;;;;10.28;6.03;;;;;;;0.83;63.58;99998.12;1776775;78;20993;-67
2022/01/09 07:46:39;;;;;;;12.33;6.78;;;;;;;0.87;63.62;99997.52;1753036;78;21194;-65
2022/01/09 07:49:06;;;;;;;12.45;6.33;;;;;;;0.90;63.40;99998.22;1773451;78;21042;-66
2022/01/09 07:51:33;;;;;;;12.43;5.70;;;;;;;0.87;63.57;99991.05;1750082;78;21041;-65
2022/01/09 07:55:53;;;;;;;13.10;6.22;;;;;;;0.94;63.73;99993.72;1776548;78;22698;-69
2022/01/09 07:58:20;;;;;;;10.18;5.90;;;;;;;0.87;63.82;99986.69;1747476;80;21085;-66
2022/01/09 08:00:46;;;;;;;11.45;5.85;;;;;;;0.86;63.79;99981.14;1748187;80;21446;-66
2022/01/09 08:03:13;;;;;;;11.78;5.87;;;;;;;0.91;63.83;99981.77;1748558;80;20992;-68
2022/01/09 08:05:41;;;;;;;13.15;6.40;;;;;;;0.97;63.96;99976.75;1744038;80;21082;-67
2022/01/09 08:08:07;;;;;;;10.50;5.62;;;;;;;1.03;63.61;99971.75;1747698;80;21696;-67
2022/01/09 08:10:34;;;;;;;9.78;6.17;;;;;;;1.07;63.76;99966.80;1745826;80;21110;-66
2022/01/09 08:13:05;;;;;;;11.88;5.35;;;;;;;1.10;63.74;99968.78;1741752;80;22194;-66
2022/01/09 08:15:29;;;;;;;12.28;5.87;;;;;;;1.19;63.61;99970.55;1722782;81;21180;-66
2022/01/09 08:17:56;;;;;;;10.10;5.80;;;;;;;1.19;63.52;99966.20;1727125;81;21129;-65
2022/01/09 08:20:22;;;;;;;8.98;5.37;;;;;;;1.20;63.46;99964.00;1745762;80;21624;-67
2022/01/09 08:22:49;;;;;;;13.85;6.87;;;;;;;1.22;63.51;99967.36;1725992;81;21101;-64
2022/01/09 08:25:17;;;;;;;10.05;5.90;;;;;;;1.23;63.54;99958.68;1745285;80;21106;-64
2022/01/09 08:27:44;;;;;;;11.33;5.87;;;;;;;1.29;63.42;99957.53;1747414;80;21065;-62
2022/01/09 08:30:11;;;;;;;11.83;6.15;;;;;;;1.27;63.29;99942.05;1727923;80;21093;-62
2022/01/09 08:32:38;;;;;;;12.45;6.78;;;;;;;1.28;63.48;99942.45;1748198;80;21081;-63
2022/01/09 08:35:06;;;;;;;11.55;5.87;;;;;;;1.30;63.36;99943.20;1743645;80;21063;-63
2022/01/09 08:37:33;;;;;;;14.20;6.50;;;;;;;1.30;63.41;99941.08;1743448;80;22296;-64
2022/01/09 08:40:00;;;;;;;14.43;7.10;;;;;;;1.31;63.42;99941.44;1742025;80;21039;-64
2022/01/09 08:42:27;;;;;;;11.05;5.97;;;;;;;1.32;63.50;99930.64;1744348;80;21110;-65
2022/01/09 08:44:53;;;;;;;11.45;6.80;;;;;;;1.32;63.54;99926.75;1746694;80;21523;-63
2022/01/09 08:47:19;;;;;;;13.35;6.50;;;;;;;1.38;63.43;99930.31;1724747;81;21038;-64
2022/01/09 08:49:46;;;;;;;14.18;6.72;;;;;;;1.37;63.36;99928.66;1729199;81;21780;-66
2022/01/09 08:52:13;;;;;;;15.50;7.35;;;;;;;1.39;63.37;99926.83;1744613;80;21105;-63
2022/01/09 08:54:40;;;;;;;12.03;7.25;;;;;;;1.40;63.44;99925.92;1738432;80;21043;-64
2022/01/09 08:57:07;;;;;;;15.75;7.17;;;;;;;1.42;63.29;99928.80;1731436;80;21424;-63
2022/01/09 08:59:33;;;;;;;12.65;6.92;;;;;;;1.39;63.29;99925.52;1731782;82;21118;-63
2022/01/09 09:02:00;;;;;;;12.37;6.95;;;;;;;1.40;63.38;99926.75;1731528;80;22562;-64
2022/01/09 09:04:26;;;;;;;14.63;7.72;;;;;;;1.42;63.29;99929.27;1736896;81;21062;-64
2022/01/09 09:06:53;;;;;;;12.73;7.42;;;;;;;1.46;63.47;99920.41;1732134;81;21047;-65
2022/01/09 09:09:19;;;;;;;14.73;6.97;;;;;;;1.53;63.38;99920.95;1733983;80;21115;-64
2022/01/09 09:11:48;;;;;;;14.87;7.45;;;;;;;1.58;63.20;99906.85;1731180;82;21077;-64
2022/01/09 09:14:14;;;;;;;13.58;8.03;;;;;;;1.62;63.12;99904.47;1734273;80;21402;-65
2022/01/09 09:16:41;;;;;;;15.65;7.60;;;;;;;1.65;62.90;99893.12;1722175;82;21110;-64
2022/01/09 09:19:08;;;;;;;14.73;8.03;;;;;;;1.62;62.86;99899.28;1733386;80;21680;-65
2022/01/09 09:21:35;;;;;;;14.73;8.10;;;;;;;1.62;62.91;99888.91;1732568;81;21086;-66
2022/01/09 09:24:02;;;;;;;17.50;9.65;;;;;;;1.60;62.99;99889.45;1733041;80;21050;-65
2022/01/09 09:26:29;;;;;;;14.70;8.25;;;;;;;1.60;62.97;99888.63;1731514;82;22558;-66
2022/01/09 09:28:55;;;;;;;17.98;8.80;;;;;;;1.58;63.19;99885.25;1735642;80;21725;-64
2022/01/09 09:31:22;;;;;;;17.32;9.58;;;;;;;1.59;63.02;99878.69;1733792;82;21074;-64
2022/01/09 09:33:48;;;;;;;19.12;9.70;;;;;;;1.59;62.89;99876.09;1734494;80;21036;-64
2022/01/09 09:36:14;;;;;;;18.00;9.40;;;;;;;1.60;62.76;99878.25;1732304;81;21122;-64
2022/01/09 09:38:41;;;;;;;18.40;9.53;;;;;;;1.61;62.68;99878.14;1732145;80;21145;-64
2022/01/09 09:41:07;;;;;;;13.55;8.70;;;;;;;1.66;62.73;99871.44;1730730;81;21530;-65
2022/01/09 09:43:33;;;;;;;15.32;8.18;;;;;;;1.70;62.68;99864.33;1730849;80;21161;-67
2022/01/09 09:46:00;;;;;;;15.55;8.93;;;;;;;1.76;62.59;99857.53;1733669;81;21054;-66
2022/01/09 09:48:27;;;;;;;13.32;7.60;;;;;;;1.80;62.34;99853.41;1718960;81;21184;-65
2022/01/09 09:50:54;;;;;;;17.55;8.90;;;;;;;1.82;62.00;99848.98;1728532;80;22261;-62
2022/01/09 09:53:21;;;;;;;20.00;10.18;;;;;;;1.81;62.12;99827.00;1718540;81;21043;-65
2022/01/09 09:55:51;;;;;;;19.37;9.93;;;;;;;1.81;61.94;99832.19;1739441;80;21078;-62
2022/01/09 09:58:15;;;;;;;17.67;9.95;;;;;;;1.81;61.84;99830.89;1746290;80;21106;-57
2022/01/09 10:00:43;;;;;;;18.50;10.13;;;;;;;1.77;61.99;99825.50;1727123;80;21371;-64
2022/01/09 10:03:09;;;;;;;16.60;9.38;;;;;;;1.76;62.17;99829.83;1746532;80;21142;-64
2022/01/09 10:05:38;;;;;;;15.43;9.33;;;;;;;1.70;62.55;99831.47;1748444;81;21023;-65
2022/01/09 10:08:09;;;;;;;21.10;10.38;;;;;;;1.71;62.82;99837.48;1746758;80;21106;-64
2022/01/09 10:10:36;;;;;;;17.07;10.63;;;;;;;1.73;63.17;99833.05;1746100;81;21082;-63
2022/01/09 10:13:10;;;;;;;13.40;9.48;;;;;;;1.80;62.98;99833.95;1743100;80;21089;-64
2022/01/09 10:15:53;;;;;;;19.05;10.68;;;;;;;1.78;62.85;99834.94;1742946;80;21144;-64
2022/01/09 10:18:44;;;;;;;23.02;10.98;;;;;;;1.80;62.91;99824.02;1707391;81;21098;-63
2022/01/09 10:21:17;;;;;;;19.12;11.70;;;;;;;1.80;62.99;99827.91;1744844;81;21054;-64
2022/01/09 10:24:13;;;;;;;20.12;11.83;;;;;;;1.79;62.76;99822.36;1728846;81;21620;-63
2022/01/09 10:26:43;;;;;;;18.95;10.40;;;;;;;1.75;62.85;99816.94;1749281;81;21146;-64
2022/01/09 10:29:10;;;;;;;18.73;10.38;;;;;;;1.75;63.06;99813.91;1748408;80;21136;-62
2022/01/09 10:31:45;;;;;;;20.35;12.05;;;;;;;1.74;63.15;99807.50;1729717;81;21059;-63
2022/01/09 10:34:12;;;;;;;19.10;10.48;;;;;;;1.70;63.20;99805.97;1750516;80;21015;-63
2022/01/09 10:36:42;;;;;;;21.00;12.45;;;;;;;1.67;63.52;99792.25;1746735;80;21066;-62
2022/01/09 10:39:13;;;;;;;23.50;11.78;;;;;;;1.73;63.72;99795.44;1745668;80;21152;-63
2022/01/09 10:41:55;;;;;;;19.05;11.45;;;;;;;1.73;63.74;99797.59;1724589;81;21149;-66
2022/01/09 10:44:23;;;;;;;22.60;11.57;;;;;;;1.81;63.69;99786.33;1745610;80;21626;-65
2022/01/09 10:46:59;;;;;;;21.80;11.33;;;;;;;1.79;63.60;99792.53;1745971;81;21533;-67
2022/01/09 10:49:41;;;;;;;21.77;11.08;;;;;;;1.77;63.66;99787.42;1754582;79;21046;-65
2022/01/09 10:52:25;;;;;;;20.40;11.68;;;;;;;1.77;63.81;99785.30;1742550;81;21086;-65
2022/01/09 10:54:55;;;;;;;19.67;10.30;;;;;;;1.81;63.81;99773.35;1743318;80;21083;-65
2022/01/09 10:57:24;;;;;;;19.10;11.05;;;;;;;1.84;63.88;99769.77;1745511;80;21054;-65
2022/01/09 10:59:51;;;;;;;18.02;10.00;;;;;;;1.86;63.91;99757.08;1746853;80;21090;-65
2022/01/09 11:02:17;;;;;;;21.15;11.63;;;;;;;1.86;63.94;99757.08;1728621;81;21105;-64
2022/01/09 11:04:48;;;;;;;21.77;10.75;;;;;;;1.85;64.11;99754.59;1749778;80;21079;-65
2022/01/09 11:07:15;;;;;;;17.05;9.48;;;;;;;1.87;64.17;99756.64;1747599;80;21129;-63
2022/01/09 11:09:46;;;;;;;19.40;11.22;;;;;;;1.86;64.19;99754.95;1747868;80;21132;-64
2022/01/09 11:12:16;;;;;;;16.20;9.58;;;;;;;1.85;64.39;99756.72;1746015;80;21061;-63
2022/01/09 11:14:41;;;;;;;20.23;10.10;;;;;;;1.90;64.52;99756.92;1745813;80;21098;-65
2022/01/09 11:17:09;;;;;;;18.37;10.75;;;;;;;1.94;64.24;99762.34;1750658;80;21121;-65
2022/01/09 11:19:37;;;;;;;17.45;9.83;;;;;;;1.92;64.11;99757.23;1732375;81;21086;-66
2022/01/09 11:22:06;;;;;;;22.60;10.55;;;;;;;1.89;64.19;99752.20;1742685;81;21613;-63
2022/01/09 11:25:26;;;;;;;19.35;10.88;;;;;;;1.92;64.21;99753.80;1745354;80;21062;-64
2022/01/09 11:28:08;;;;;;;18.57;10.95;;;;;;;1.91;64.07;99756.01;1729436;81;21050;-64
2022/01/09 11:30:43;;;;;;;20.02;11.12;;;;;;;1.88;64.04;99757.00;1743535;80;21086;-65
2022/01/09 11:33:39;;;;;;;21.12;11.80;;;;;;;1.86;64.10;99747.17;1747873;80;22786;-65
2022/01/09 11:36:39;;;;;;;21.83;11.40;;;;;;;1.88;64.11;99746.62;1654320;85;21066;-65